Time;durP1;ratioP1;P1;durP2;ratioP2;P2;SDS_P1;SDS_P2;PMS_P1;PMS_P2;Temp;Humidity;BMP_temperature;BMP_pressure;BME280_temperature;BME280_humidity;BME280_pressure;Samples;Min_cycle;Max_cycle;Signal;HPM_P1;HPM_P2
2020/12/07 00:02:03;;;;;;;50.00;24.83;;;6.40;95.90;;;6.22;80.56;98630.25;4967843;28;20051;-80
2020/12/07 00:04:30;;;;;;;45.70;25.17;;;6.30;95.90;;;6.20;81.13;98624.22;4967857;28;20047;-80
2020/12/07 00:06:57;;;;;;;45.58;23.35;;;6.30;95.80;;;6.20;81.02;98613.44;4967959;28;20079;-80
2020/12/07 00:09:24;;;;;;;46.05;23.73;;;6.30;95.90;;;6.22;80.38;98603.25;4967699;28;20075;-80
2020/12/07 00:11:51;;;;;;;46.33;24.80;;;6.30;95.90;;;6.20;80.82;98602.63;4968212;28;20035;-80
2020/12/07 00:14:18;;;;;;;40.67;23.05;;;6.30;95.90;;;6.17;80.91;98600.34;4966991;28;20046;-79
2020/12/07 00:16:45;;;;;;;42.20;24.48;;;6.30;96.00;;;6.17;81.50;98605.75;4967435;28;20452;-80
2020/12/07 00:19:12;;;;;;;41.45;22.05;;;6.30;95.90;;;6.19;81.05;98597.44;4966440;28;20135;-80
2020/12/07 00:21:43;;;;;;;41.95;23.25;;;6.40;95.90;;;6.18;81.41;98604.69;4966270;28;20055;-79
2020/12/07 00:24:11;;;;;;;35.80;20.55;;;6.40;95.90;;;6.19;81.37;98598.28;4967373;28;20043;-79
2020/12/07 00:26:38;;;;;;;36.45;20.80;;;6.40;96.00;;;6.20;81.15;98591.81;4967673;28;20496;-80
2020/12/07 00:29:05;;;;;;;36.25;20.25;;;6.40;96.00;;;6.21;81.44;98598.91;4979390;28;20514;-79
2020/12/07 00:31:34;;;;;;;35.97;20.42;;;6.60;96.10;;;6.24;80.80;98608.44;4986371;28;20046;-80
2020/12/07 00:34:01;;;;;;;32.13;18.10;;;6.40;96.10;;;6.24;81.13;98611.16;4984968;28;20038;-80
2020/12/07 00:36:28;;;;;;;31.15;17.70;;;6.40;96.10;;;6.29;80.74;98605.16;4986534;28;20055;-80
2020/12/07 00:38:55;;;;;;;29.48;16.88;;;6.40;96.10;;;6.29;81.30;98613.25;4986264;28;20047;-80
2020/12/07 00:41:24;;;;;;;32.25;17.25;;;6.40;96.20;;;6.28;81.30;98616.97;4986659;28;20063;-80
2020/12/07 00:43:51;;;;;;;27.35;16.70;;;6.40;96.20;;;6.30;80.92;98626.53;4990246;28;20075;-79
2020/12/07 00:46:18;;;;;;;28.98;16.77;;;6.40;96.20;;;6.28;81.35;98617.81;4991421;28;20046;-80
2020/12/07 00:48:45;;;;;;;32.00;17.75;;;6.40;96.10;;;6.28;81.04;98608.88;4990831;28;20038;-80
2020/12/07 00:51:12;;;;;;;30.88;17.17;;;6.40;96.30;;;6.29;81.61;98605.16;4990104;28;20077;-80
2020/12/07 00:53:39;;;;;;;30.73;17.80;;;6.50;96.30;;;6.29;81.39;98603.28;4990693;28;20039;-80
2020/12/07 00:56:05;;;;;;;27.15;16.35;;;6.40;96.30;;;6.28;81.65;98587.25;4990729;28;20042;-80
2020/12/07 00:58:34;;;;;;;29.38;17.00;;;6.40;96.20;;;6.30;81.36;98577.09;4989997;28;20043;-80
2020/12/07 01:01:01;;;;;;;29.45;16.58;;;6.40;96.30;;;6.31;81.17;98567.97;4989946;28;20041;-80
2020/12/07 01:03:28;;;;;;;29.35;16.05;;;6.50;96.30;;;6.29;80.93;98575.44;4990168;28;20043;-80
2020/12/07 01:05:55;;;;;;;28.48;16.15;;;6.50;96.30;;;6.31;81.91;98579.59;4988670;28;20089;-80
2020/12/07 01:08:23;;;;;;;25.00;14.57;;;6.50;96.40;;;6.35;80.99;98590.81;4988130;28;20058;-80
2020/12/07 01:10:56;;;;;;;24.70;14.13;;;6.50;96.40;;;6.34;81.44;98595.41;4988145;28;20161;-80
2020/12/07 01:13:23;;;;;;;23.10;13.38;;;6.50;96.40;;;6.35;81.18;98580.00;4989088;28;20065;-80
2020/12/07 01:15:52;;;;;;;22.92;14.20;;;6.50;96.50;;;6.31;81.61;98576.06;4989174;28;20541;-80
2020/12/07 01:18:19;;;;;;;22.52;13.68;;;6.50;96.30;;;6.32;81.15;98580.41;4988895;28;20057;-80
2020/12/07 01:20:46;;;;;;;22.55;12.85;;;6.50;96.40;;;6.34;81.33;98583.75;4988229;28;20043;-80
2020/12/07 01:23:14;;;;;;;21.08;12.80;;;6.50;96.50;;;6.33;81.47;98584.78;4987095;28;20078;-79
2020/12/07 01:25:40;;;;;;;21.45;12.73;;;6.50;96.50;;;6.32;81.73;98589.38;4989939;28;20074;-79
2020/12/07 01:28:08;;;;;;;19.08;11.73;;;6.50;96.50;;;6.33;81.88;98579.38;4988922;28;20051;-80
2020/12/07 01:30:35;;;;;;;20.38;12.52;;;6.50;96.50;;;6.38;81.62;98585.03;4988436;28;20057;-80
2020/12/07 01:33:03;;;;;;;21.23;12.82;;;6.50;96.60;;;6.39;81.46;98578.56;4973192;28;20054;-79
2020/12/07 01:35:31;;;;;;;25.30;14.73;;;6.50;96.60;;;6.38;81.22;98569.63;4985387;28;20062;-80
2020/12/07 01:38:00;;;;;;;23.17;14.02;;;6.60;96.70;;;6.39;81.31;98567.75;4985726;28;20054;-80
2020/12/07 01:40:27;;;;;;;25.17;14.98;;;6.50;96.70;;;6.38;81.36;98558.00;4985674;28;20051;-80
2020/12/07 01:42:53;;;;;;;22.95;14.93;;;6.50;96.50;;;6.39;81.62;98551.53;4970276;28;20071;-80
2020/12/07 01:45:20;;;;;;;24.70;15.10;;;6.60;96.40;;;6.39;81.77;98551.53;4985040;28;20062;-80
2020/12/07 01:47:47;;;;;;;23.95;14.18;;;6.60;96.40;;;6.37;81.82;98557.16;4985069;28;20051;-80
2020/12/07 01:50:17;;;;;;;25.55;16.08;;;6.60;96.40;;;6.37;81.85;98561.72;4985116;28;20050;-80
2020/12/07 01:52:46;;;;;;;27.37;17.50;;;6.60;96.40;;;6.35;81.80;98563.81;4984284;28;20062;-80
2020/12/07 01:55:15;;;;;;;27.10;17.00;;;6.80;96.60;;;6.36;81.63;98555.50;4984462;28;20327;-80
2020/12/07 01:57:48;;;;;;;27.73;16.13;;;6.60;96.30;;;6.35;81.77;98542.19;4984748;28;20077;-80
2020/12/07 02:00:16;;;;;;;26.40;15.93;;;6.60;96.50;;;6.39;81.81;98532.63;4984791;28;20075;-80
2020/12/07 02:02:46;;;;;;;27.55;16.55;;;6.60;96.50;;;6.41;81.47;98547.59;4970002;28;20031;-80
2020/12/07 02:05:16;;;;;;;26.92;17.08;;;6.60;96.50;;;6.39;81.93;98560.47;4969679;28;20019;-80
2020/12/07 02:07:43;;;;;;;27.17;16.58;;;6.60;96.40;;;6.39;81.75;98549.66;4985607;28;20051;-80
2020/12/07 02:10:12;;;;;;;24.67;16.13;;;6.60;96.40;;;6.39;81.60;98560.47;4984764;28;20047;-80
2020/12/07 02:12:39;;;;;;;27.60;16.85;;;6.60;96.40;;;6.38;81.64;98542.63;4984862;28;20054;-80
2020/12/07 02:15:06;;;;;;;28.75;17.80;;;6.60;96.30;;;6.38;81.77;98533.69;4984024;28;20066;-80
2020/12/07 02:17:33;;;;;;;30.08;18.40;;;6.60;96.30;;;6.41;81.36;98527.84;4984932;28;20059;-80
2020/12/07 02:20:02;;;;;;;33.60;18.98;;;6.60;96.20;;;6.44;81.78;98527.44;4985512;28;20051;-80
2020/12/07 02:22:28;;;;;;;33.35;19.63;;;6.60;96.30;;;6.45;81.02;98523.69;4970481;28;20043;-80
2020/12/07 02:25:34;;;;;;;31.95;19.85;;;6.60;96.30;;;6.41;81.69;98514.34;4928747;29;20056;-80
2020/12/07 02:28:01;;;;;;;31.15;18.65;;;6.60;96.20;;;6.41;81.45;98519.75;4912904;29;20167;-80
2020/12/07 02:30:28;;;;;;;33.58;19.30;;;6.60;96.10;;;6.47;81.15;98518.91;4938566;29;20043;-80
2020/12/07 02:32:56;;;;;;;31.13;20.13;;;6.60;96.20;;;6.46;81.41;98517.25;4984792;28;20074;-79
2020/12/07 02:35:28;;;;;;;30.95;18.73;;;6.60;96.10;;;6.43;81.34;98523.06;4969752;28;20770;-80
2020/12/07 02:37:55;;;;;;;30.25;18.95;;;6.60;96.20;;;6.40;81.65;98518.09;4984812;28;20516;-80
2020/12/07 02:40:25;;;;;;;29.10;17.45;;;6.60;96.30;;;6.39;81.65;98511.03;4985577;28;20043;-80
2020/12/07 02:42:55;;;;;;;29.65;17.38;;;6.60;96.30;;;6.40;81.37;98512.69;4968657;28;20121;-80
2020/12/07 02:45:26;;;;;;;29.98;17.20;;;6.60;96.30;;;6.42;81.28;98497.09;4984550;28;20062;-80
2020/12/07 02:48:01;;;;;;;30.63;17.98;;;6.60;96.30;;;6.44;80.92;98497.72;4984928;28;20138;-80
2020/12/07 02:50:31;;;;;;;26.00;16.42;;;6.60;96.20;;;6.50;81.04;98507.69;4970225;28;20043;-80
2020/12/07 02:52:58;;;;;;;25.27;15.82;;;6.60;96.10;;;6.47;81.33;98513.50;4984359;28;20047;-80
2020/12/07 02:55:25;;;;;;;26.95;16.98;;;6.60;96.00;;;6.45;81.11;98510.19;4984274;28;20059;-80
2020/12/07 02:57:52;;;;;;;26.70;16.10;;;6.60;96.00;;;6.42;80.79;98506.03;4984430;28;20079;-80
2020/12/07 03:00:25;;;;;;;27.30;16.65;;;6.60;96.10;;;6.40;81.15;98507.28;4983454;28;20046;-80
2020/12/07 03:02:52;;;;;;;26.90;16.63;;;6.60;96.10;;;6.43;80.77;98501.44;4984119;28;20051;-80
2020/12/07 03:05:24;;;;;;;27.80;16.20;;;6.60;96.10;;;6.44;80.67;98506.66;4983852;28;20043;-80
2020/12/07 03:07:53;;;;;;;27.75;16.90;;;6.60;95.90;;;6.42;81.14;98505.22;4984002;28;20137;-80
2020/12/07 03:10:21;;;;;;;26.20;16.42;;;6.60;96.10;;;6.41;80.85;98515.16;4983900;28;20047;-80
2020/12/07 03:12:51;;;;;;;29.08;17.60;;;6.60;96.10;;;6.40;81.64;98520.81;4983768;28;20043;-80
2020/12/07 03:15:22;;;;;;;25.52;16.20;;;6.60;96.00;;;6.38;80.93;98525.59;4983534;28;20059;-80
2020/12/07 03:17:49;;;;;;;26.02;16.70;;;6.60;95.90;;;6.38;81.02;98509.38;4983233;28;20059;-80
2020/12/07 03:20:20;;;;;;;;;;;6.60;95.80;;;6.39;81.18;98516.41;4983824;28;20038;-80
2020/12/07 03:22:48;;;;;;;25.67;15.95;;;6.70;96.00;;;6.42;81.04;98527.66;4984023;28;20018;-80
2020/12/07 03:25:15;;;;;;;29.60;18.17;;;6.60;95.80;;;6.41;81.50;98530.56;4983250;28;20039;-80
2020/12/07 03:27:45;;;;;;;29.40;18.65;;;6.60;95.80;;;6.32;81.40;98521.84;4983146;28;20053;-80
2020/12/07 03:30:12;;;;;;;28.55;17.88;;;6.60;95.90;;;6.36;81.10;98527.63;4982698;28;20082;-79
2020/12/07 03:32:39;;;;;;;28.80;17.48;;;6.60;95.90;;;6.37;81.60;98530.13;4985808;28;20165;-80
2020/12/07 03:35:05;;;;;;;29.25;17.92;;;6.60;95.90;;;6.42;81.24;98532.22;4985471;28;20054;-79
2020/12/07 03:37:32;;;;;;;28.98;17.85;;;6.50;96.00;;;6.41;81.11;98519.75;4987427;28;20050;-79
2020/12/07 03:40:01;;;;;;;28.08;17.30;;;6.60;96.20;;;6.40;80.81;98510.81;4986542;28;20110;-79
2020/12/07 03:42:36;;;;;;;27.67;17.40;;;6.60;96.00;;;6.38;81.20;98512.06;4986723;28;20030;-80
2020/12/07 03:45:06;;;;;;;26.77;16.95;;;6.60;96.10;;;6.40;81.38;98504.59;4986093;28;20117;-80
2020/12/07 03:47:33;;;;;;;26.23;16.77;;;6.60;96.10;;;6.40;81.57;98504.59;4986700;28;20062;-79
2020/12/07 03:50:01;;;;;;;28.15;17.25;;;6.60;96.10;;;6.41;81.19;98496.25;4986252;28;20050;-80
2020/12/07 03:52:28;;;;;;;27.52;17.05;;;6.60;96.20;;;6.42;81.47;98497.94;4985786;28;20078;-80
2020/12/07 03:54:57;;;;;;;28.63;17.65;;;6.60;96.10;;;6.46;81.38;98503.75;4985761;28;20042;-79
2020/12/07 03:57:25;;;;;;;29.75;18.42;;;6.60;96.20;;;6.50;81.30;98501.47;4985988;28;20118;-80
2020/12/07 03:59:53;;;;;;;30.25;18.75;;;6.60;96.10;;;6.49;81.19;98499.78;4985729;28;20058;-80
2020/12/07 04:02:21;;;;;;;28.33;17.95;;;6.50;96.00;;;6.47;80.92;98491.88;4986309;28;20051;-80
2020/12/07 04:04:51;;;;;;;28.58;17.95;;;6.50;96.00;;;6.46;81.10;98495.66;4985766;28;20054;-80
2020/12/07 04:07:18;;;;;;;28.88;17.92;;;6.60;96.10;;;6.48;80.93;98515.19;4985812;28;20043;-80
2020/12/07 04:09:46;;;;;;;29.70;18.63;;;6.60;96.10;;;6.45;80.72;98511.03;4986846;28;20302;-80
2020/12/07 04:12:12;;;;;;;32.30;19.27;;;6.60;96.00;;;6.46;81.19;98511.84;4986639;28;20042;-80
2020/12/07 04:14:39;;;;;;;30.00;18.35;;;6.60;96.00;;;6.44;81.24;98509.34;4985571;28;20496;-80
2020/12/07 04:17:07;;;;;;;28.92;18.52;;;6.50;96.00;;;6.45;81.00;98512.88;4985744;28;20107;-80
2020/12/07 04:19:33;;;;;;;28.55;17.67;;;6.50;95.90;;;6.42;80.67;98516.03;4986544;28;20047;-80
2020/12/07 04:22:00;;;;;;;27.55;17.27;;;6.50;95.90;;;6.43;80.88;98518.50;4992852;28;20058;-80
2020/12/07 04:24:27;;;;;;;28.83;17.33;;;6.50;96.00;;;6.40;81.18;98524.31;4994158;28;20046;-80
2020/12/07 04:26:54;;;;;;;27.55;17.45;;;6.50;96.00;;;6.38;81.24;98530.97;4995056;28;20058;-80
2020/12/07 04:29:20;;;;;;;30.20;17.98;;;6.60;95.80;;;6.38;81.10;98534.50;4995253;28;20058;-80
2020/12/07 04:31:47;;;;;;;26.73;16.35;;;6.60;95.80;;;6.40;81.08;98531.59;4996279;28;20023;-79
2020/12/07 04:34:15;;;;;;;27.05;16.70;;;6.50;95.80;;;6.38;80.88;98537.22;4995325;28;20035;-80
2020/12/07 04:36:41;;;;;;;26.60;16.25;;;6.50;95.60;;;6.38;80.70;98530.97;4995166;28;20082;-80
2020/12/07 04:39:08;;;;;;;28.17;16.52;;;6.50;95.60;;;6.38;81.18;98523.69;4994138;28;20042;-80
2020/12/07 04:41:35;;;;;;;25.77;15.90;;;6.50;95.70;;;6.38;80.82;98525.59;4993725;28;20075;-80
2020/12/07 04:44:02;;;;;;;26.80;16.27;;;6.50;95.70;;;6.33;81.07;98534.28;4992786;28;20043;-80
2020/12/07 04:46:30;;;;;;;25.55;16.80;;;6.50;95.70;;;6.36;80.92;98531.19;4992166;28;20042;-80
2020/12/07 04:49:00;;;;;;;25.98;16.65;;;6.50;95.60;;;6.38;80.71;98530.97;4991083;28;20054;-80
2020/12/07 04:51:28;;;;;;;27.42;17.02;;;6.40;95.50;;;6.38;80.70;98517.47;4989888;28;20051;-80
2020/12/07 04:53:57;;;;;;;26.05;16.77;;;6.50;95.60;;;6.40;80.65;98504.59;4989213;28;20038;-80
2020/12/07 04:56:25;;;;;;;27.98;17.77;;;6.50;95.80;;;6.41;80.66;98517.88;4985803;28;20070;-81
2020/12/07 04:58:53;;;;;;;28.05;17.13;;;6.50;95.80;;;6.43;80.17;98523.91;4981586;28;20047;-79
2020/12/07 05:01:20;;;;;;;30.38;18.48;;;6.70;95.80;;;6.41;80.49;98539.47;4978255;28;20498;-82
2020/12/07 05:03:46;;;;;;;31.20;19.38;;;6.50;95.80;;;6.43;80.13;98540.09;4988391;28;20090;-84
2020/12/07 05:06:17;;;;;;;32.60;19.42;;;6.40;95.50;;;6.40;80.23;98539.72;4989484;28;20109;-83
2020/12/07 05:08:45;;;;;;;34.45;20.35;;;6.50;95.80;;;6.41;80.14;98530.56;4989233;28;20051;-83
2020/12/07 05:11:12;;;;;;;32.75;20.85;;;6.50;95.80;;;6.41;80.24;98531.38;4989977;28;20043;-83
2020/12/07 05:13:41;;;;;;;43.45;24.80;;;6.40;95.60;;;6.38;80.34;98530.97;4991956;28;20055;-83
2020/12/07 05:16:09;;;;;;;36.95;22.88;;;6.50;95.70;;;6.37;80.33;98532.00;4993071;28;20050;-83
2020/12/07 05:18:38;;;;;;;38.80;23.55;;;6.50;95.60;;;6.37;80.06;98523.91;4992114;28;20035;-83
2020/12/07 05:21:06;;;;;;;38.70;23.88;;;6.50;95.70;;;6.34;80.61;98525.16;4991552;28;20107;-83
2020/12/07 05:23:36;;;;;;;43.38;25.05;;;6.50;95.70;;;6.42;80.83;98532.22;4991471;28;20774;-83
2020/12/07 05:26:07;;;;;;;40.80;25.63;;;6.40;95.60;;;6.43;80.10;98542.81;4972056;28;20047;-83
2020/12/07 05:28:40;;;;;;;42.17;27.00;;;6.40;95.60;;;6.41;80.50;98549.47;4972705;28;20067;-83
2020/12/07 05:31:07;;;;;;;38.47;24.10;;;6.40;95.50;;;6.44;80.44;98551.78;4974773;28;20062;-83
2020/12/07 05:33:34;;;;;;;42.10;25.70;;;6.60;95.70;;;6.44;80.01;98551.78;4975126;28;20059;-83
2020/12/07 05:36:00;;;;;;;39.10;24.70;;;6.40;95.60;;;6.40;79.85;98545.94;4975669;28;20047;-83
2020/12/07 05:38:35;;;;;;;38.63;25.23;;;6.40;95.50;;;6.42;79.81;98543.03;4974302;28;20456;-83
2020/12/07 05:41:04;;;;;;;38.15;24.83;;;6.40;95.60;;;6.39;80.12;98546.13;4974490;28;20515;-82
2020/12/07 05:43:32;;;;;;;36.33;23.70;;;6.40;95.60;;;6.37;80.45;98548.22;4969450;28;20039;-83
2020/12/07 05:45:59;;;;;;;36.83;23.50;;;6.40;95.70;;;6.40;80.37;98550.53;4969160;28;20063;-83
2020/12/07 05:48:31;;;;;;;35.08;22.92;;;6.40;95.60;;;6.36;80.11;98550.09;4967863;28;20047;-83
2020/12/07 05:51:02;;;;;;;34.88;22.33;;;6.40;95.60;;;6.36;80.22;98544.69;4963497;28;20547;-80
2020/12/07 05:53:30;;;;;;;37.13;23.20;;;6.40;95.60;;;6.39;80.33;98546.13;4976032;28;20082;-82
2020/12/07 05:56:00;;;;;;;35.35;22.27;;;6.40;95.60;;;6.37;80.34;98543.63;4965331;28;20099;-82
2020/12/07 05:58:30;;;;;;;38.53;23.20;;;6.50;95.60;;;6.34;79.89;98540.50;4965648;28;20039;-83
2020/12/07 06:01:03;;;;;;;36.35;21.77;;;6.40;95.50;;;6.35;80.57;98536.78;4966979;28;20067;-83
2020/12/07 06:03:31;;;;;;;36.33;22.85;;;6.40;95.40;;;6.36;80.60;98538.44;4965655;28;20078;-83
2020/12/07 06:05:57;;;;;;;38.47;23.02;;;6.40;95.60;;;6.32;80.15;98548.84;4966631;28;20043;-82
2020/12/07 06:08:30;;;;;;;36.80;23.70;;;6.40;95.60;;;6.37;80.05;98550.91;4965497;28;20070;-82
2020/12/07 06:11:01;;;;;;;37.47;23.63;;;6.40;95.50;;;6.33;80.38;98530.75;4965416;28;20039;-83
2020/12/07 06:13:30;;;;;;;41.28;25.08;;;6.40;95.70;;;6.34;80.10;98532.41;4964553;28;20102;-82
2020/12/07 06:15:57;;;;;;;45.20;26.55;;;6.40;95.60;;;6.29;80.37;98524.13;4965592;28;20102;-83
2020/12/07 06:18:30;;;;;;;45.05;26.27;;;6.40;95.50;;;6.32;80.27;98531.78;4965874;28;20074;-82
2020/12/07 06:21:03;;;;;;;50.50;28.50;;;6.40;95.60;;;6.36;80.32;98544.69;4965767;28;20106;-83
2020/12/07 06:23:32;;;;;;;49.85;28.75;;;6.40;95.50;;;6.35;80.54;98547.59;4965846;28;20074;-82
2020/12/07 06:26:05;;;;;;;49.60;28.90;;;6.40;95.70;;;6.34;80.04;98567.53;4965871;28;20075;-83
2020/12/07 06:28:34;;;;;;;49.47;29.95;;;6.40;95.60;;;6.34;80.41;98562.13;4965849;28;20058;-82
2020/12/07 06:31:08;;;;;;;46.67;28.67;;;6.40;95.50;;;6.33;80.11;98561.31;4966504;28;20039;-82
2020/12/07 06:33:41;;;;;;;50.17;28.42;;;6.40;95.60;;;6.29;80.04;98556.53;4980796;28;20106;-81
2020/12/07 06:36:25;;;;;;;47.22;28.70;;;6.40;95.50;;;6.36;80.55;98562.75;4959473;28;20058;-81
2020/12/07 06:38:51;;;;;;;44.30;27.30;;;6.40;95.60;;;6.36;80.08;98566.31;4961729;28;20047;-82
2020/12/07 06:41:31;;;;;;;46.10;27.95;;;6.40;95.40;;;6.38;79.94;98560.72;4963021;28;20047;-82
2020/12/07 06:44:01;;;;;;;44.47;27.27;;;6.40;95.50;;;6.39;80.27;98565.88;4961943;28;20091;-82
2020/12/07 06:46:51;;;;;;;47.03;28.17;;;6.40;95.60;;;6.39;79.81;98563.19;4963255;28;20051;-82
2020/12/07 06:49:18;;;;;;;46.73;28.20;;;6.40;95.50;;;6.38;80.18;98568.81;4958867;28;20514;-82
2020/12/07 06:51:48;;;;;;;46.15;28.23;;;6.40;95.50;;;6.34;80.02;98564.81;4961609;28;20035;-82
2020/12/07 06:57:24;;;;;;;45.90;27.45;;;6.40;95.40;;;6.33;79.99;98582.09;4962451;29;20067;-82
2020/12/07 07:00:07;;;;;;;47.03;28.17;;;6.40;95.40;;;6.31;80.38;98574.19;4961928;28;20455;-82
2020/12/07 07:02:34;;;;;;;46.83;28.63;;;6.40;95.40;;;6.31;80.29;98563.38;4959121;28;20102;-82
2020/12/07 07:05:02;;;;;;;48.50;29.45;;;6.40;95.30;;;6.35;79.92;98563.81;4958257;28;20051;-82
2020/12/07 07:07:31;;;;;;;46.75;28.98;;;6.30;95.30;;;6.34;80.04;98564.81;4958729;28;20085;-82
2020/12/07 07:09:59;;;;;;;46.70;28.42;;;6.30;95.40;;;6.33;79.99;98574.00;4958921;28;20043;-82
2020/12/07 07:12:27;;;;;;;47.08;27.77;;;6.30;95.40;;;6.30;80.06;98577.91;4958693;28;20047;-82
2020/12/07 07:14:56;;;;;;;46.53;28.27;;;6.30;95.20;;;6.34;80.11;98579.19;4958529;28;20055;-82
2020/12/07 07:17:28;;;;;;;44.83;27.42;;;6.30;95.30;;;6.37;79.81;98584.16;4959785;28;20043;-82
2020/12/07 07:19:55;;;;;;;48.17;27.42;;;6.50;95.60;;;6.37;79.61;98596.84;4957191;29;20047;-82
2020/12/07 07:22:22;;;;;;;45.03;27.10;;;6.30;95.30;;;6.38;79.71;98601.22;4959004;28;20075;-82
2020/12/07 07:24:56;;;;;;;44.85;26.40;;;6.30;95.30;;;6.35;80.11;98598.94;4960116;28;20047;-82
2020/12/07 07:30:08;;;;;;;45.97;26.50;;;6.30;95.30;;;6.37;79.38;98604.97;4978640;28;20054;-82
2020/12/07 07:32:39;;;;;;;45.10;26.77;;;6.30;95.10;;;6.34;79.59;98616.16;4979280;28;20051;-82
2020/12/07 07:35:06;;;;;;;49.13;28.20;;;6.30;94.90;;;6.33;79.30;98628.84;4977875;28;20384;-82
2020/12/07 07:37:33;;;;;;;47.38;26.38;;;6.50;95.10;;;6.34;79.63;98622.41;4977815;28;20483;-82
2020/12/07 07:40:01;;;;;;;44.85;25.05;;;6.30;94.90;;;6.33;79.13;98631.53;4975632;28;20046;-83
2020/12/07 07:42:30;;;;;;;43.83;26.75;;;6.30;95.10;;;6.33;79.34;98618.03;4977404;28;20047;-82
2020/12/07 07:44:58;;;;;;;49.03;27.67;;;6.30;95.00;;;6.33;79.78;98617.22;4977136;28;20050;-82
2020/12/07 07:47:30;;;;;;;42.50;24.85;;;6.30;95.00;;;6.31;79.18;98620.13;4976962;28;20047;-82
2020/12/07 08:15:33;;;;;;;33.38;19.73;;;6.20;94.80;;;6.28;78.81;98650.22;4960853;28;20086;-84
2020/12/07 08:18:00;;;;;;;39.58;20.98;;;6.30;95.10;;;6.25;79.23;98656.88;4970502;28;20050;-82
2020/12/07 08:20:29;;;;;;;38.40;20.58;;;6.20;94.70;;;6.25;79.34;98656.06;4968804;28;20031;-83
2020/12/07 08:22:58;;;;;;;35.08;19.52;;;6.30;94.90;;;6.25;79.38;98656.88;4967633;28;20074;-82
2020/12/07 08:25:46;;;;;;;33.88;19.60;;;6.30;94.80;;;6.25;78.97;98664.97;4983305;28;20062;-81
2020/12/07 08:28:25;;;;;;;36.70;18.73;;;6.30;94.90;;;6.26;79.02;98658.56;4965727;28;20507;-81
2020/12/07 08:31:06;;;;;;;36.03;19.98;;;6.30;94.90;;;6.25;79.08;98667.69;4971354;28;20047;-81
2020/12/07 08:33:36;;;;;;;34.50;19.58;;;6.30;95.00;;;6.25;79.70;98664.16;4969064;28;20055;-81
2020/12/07 08:36:04;;;;;;;33.65;19.13;;;6.20;95.00;;;6.22;79.77;98667.25;4963057;28;20047;-81
2020/12/07 08:38:35;;;;;;;32.97;17.90;;;6.20;94.80;;;6.19;79.79;98667.66;4962390;28;20055;-81
2020/12/07 08:41:09;;;;;;;32.17;18.80;;;6.20;95.00;;;6.16;80.03;98668.88;4962058;28;20067;-81
2020/12/07 08:43:37;;;;;;;34.20;17.45;;;6.30;95.10;;;6.18;80.14;98676.78;4976204;28;20989;-81
2020/12/07 08:46:06;;;;;;;34.75;18.58;;;6.30;95.10;;;6.21;79.84;98674.53;4975895;28;20079;-82
2020/12/07 08:48:33;;;;;;;33.08;18.48;;;6.20;95.00;;;6.24;79.70;98670.56;4959968;29;20054;-82
2020/12/07 08:50:59;;;;;;;30.48;17.05;;;6.20;95.10;;;6.19;79.89;98675.78;4960988;28;20095;-82
2020/12/07 08:53:26;;;;;;;35.97;18.63;;;6.30;95.10;;;6.15;79.78;98679.88;4959477;29;20055;-81
2020/12/07 08:55:54;;;;;;;31.48;17.25;;;6.30;95.10;;;6.14;80.11;98683.63;4958912;29;20063;-82
2020/12/07 08:58:21;;;;;;;33.83;18.42;;;6.30;95.10;;;6.14;80.06;98683.63;4958964;29;20098;-82
2020/12/07 09:00:48;;;;;;;34.30;18.52;;;6.30;95.20;;;6.20;79.74;98680.94;4957415;28;20055;-81
2020/12/07 09:03:15;;;;;;;35.30;19.42;;;6.30;95.10;;;6.21;80.36;98685.34;4959967;28;20106;-81
2020/12/07 09:05:42;;;;;;;34.60;17.83;;;6.30;95.00;;;6.24;79.98;98686.78;4962483;28;20083;-81
2020/12/07 09:08:09;;;;;;;31.05;17.52;;;6.30;95.00;;;6.29;79.38;98688.91;4982847;28;20043;-82
2020/12/07 09:10:36;;;;;;;29.98;17.70;;;6.20;94.80;;;6.21;79.55;98685.34;4968143;28;20122;-82
2020/12/07 09:13:04;;;;;;;31.05;17.17;;;6.30;95.00;;;6.15;79.87;98694.25;4975837;28;20062;-82
2020/12/07 09:15:31;;;;;;;27.40;16.42;;;6.30;94.70;;;6.20;79.91;98696.31;4973557;28;20587;-82
2020/12/07 09:17:58;;;;;;;32.22;17.38;;;6.30;94.80;;;6.20;79.61;98699.03;4973447;28;20035;-82
2020/12/07 09:20:25;;;;;;;33.92;18.40;;;6.30;94.80;;;6.22;79.51;98703.19;4980013;28;20046;-82
2020/12/07 09:22:52;;;;;;;33.83;17.65;;;6.30;94.90;;;6.29;79.50;98705.94;4979310;28;20066;-82
2020/12/07 09:25:19;;;;;;;33.22;17.52;;;6.40;95.10;;;6.32;79.62;98710.94;4979471;28;20050;-82
2020/12/07 09:27:46;;;;;;;30.67;17.30;;;6.30;95.00;;;6.29;79.84;98711.34;4974177;28;20573;-82
2020/12/07 09:30:14;;;;;;;31.50;17.75;;;6.30;95.10;;;6.24;79.95;98717.34;4980154;28;20117;-82
2020/12/07 09:32:40;;;;;;;34.00;18.15;;;6.30;95.10;;;6.25;80.07;98726.28;4961340;28;20118;-82
2020/12/07 09:35:08;;;;;;;33.13;17.55;;;6.30;94.90;;;6.29;79.83;98737.53;4959820;28;20047;-82
2020/12/07 09:37:36;;;;;;;32.15;17.45;;;6.30;95.10;;;6.21;79.88;98738.53;4960044;28;20046;-82
2020/12/07 09:40:05;;;;;;;32.45;17.80;;;6.40;94.90;;;6.28;79.60;98746.66;4960140;29;20063;-82
2020/12/07 09:42:32;;;;;;;26.85;15.13;;;6.30;94.70;;;6.28;79.56;98747.47;4959571;29;20760;-82
2020/12/07 09:44:59;;;;;;;29.92;17.02;;;6.40;94.50;;;6.25;79.39;98748.72;4973708;28;20106;-82
2020/12/07 09:47:27;;;;;;;31.15;17.95;;;6.40;94.60;;;6.25;79.93;98743.31;4959661;29;20091;-82
2020/12/07 09:49:55;;;;;;;34.35;18.40;;;6.40;94.60;;;6.30;79.02;98750.81;4959109;29;20094;-82
2020/12/07 09:52:21;;;;;;;33.78;18.73;;;6.40;94.40;;;6.29;79.53;98754.56;4958697;29;20051;-82
2020/12/07 09:54:48;;;;;;;33.35;19.00;;;6.40;94.40;;;6.27;78.88;98745.81;4959022;29;20051;-82
2020/12/07 09:57:15;;;;;;;35.95;20.27;;;6.40;94.30;;;6.31;79.62;98757.06;4962181;28;20094;-82
2020/12/07 09:59:43;;;;;;;34.97;19.55;;;6.30;94.40;;;6.29;78.76;98764.53;4975065;28;20046;-82
2020/12/07 10:02:10;;;;;;;35.17;18.90;;;6.30;94.50;;;6.25;79.63;98764.09;4973297;28;20063;-82
2020/12/07 10:04:38;;;;;;;33.35;18.75;;;6.30;94.40;;;6.28;79.14;98760.16;4958194;29;20051;-82
2020/12/07 10:07:05;;;;;;;29.95;16.52;;;6.30;94.50;;;6.25;78.63;98770.31;4973645;28;20061;-82
2020/12/07 10:09:31;;;;;;;30.48;16.27;;;6.30;93.90;;;6.30;79.09;98774.28;4957149;28;20078;-81
2020/12/07 10:11:58;;;;;;;29.63;15.85;;;6.30;94.10;;;6.31;78.66;98773.28;4960374;28;20058;-81
2020/12/07 10:14:25;;;;;;;30.58;15.93;;;6.30;94.10;;;6.31;79.11;98774.09;4963914;28;20122;-82
2020/12/07 10:16:52;;;;;;;25.30;14.93;;;6.30;94.10;;;6.26;78.72;98765.75;4961712;28;20054;-82
2020/12/07 10:19:19;;;;;;;26.45;14.88;;;6.30;94.00;;;6.24;78.96;98774.06;4976532;28;20111;-81
2020/12/07 10:21:46;;;;;;;28.45;15.73;;;6.30;93.90;;;6.23;79.06;98776.97;4964121;28;20073;-81
2020/12/07 10:24:13;;;;;;;29.92;16.42;;;6.30;94.10;;;6.20;79.28;98777.34;4968341;28;20038;-82
2020/12/07 10:26:40;;;;;;;33.50;17.85;;;6.30;94.40;;;6.19;79.12;98781.13;4966981;28;20089;-81
2020/12/07 10:29:07;;;;;;;35.03;18.83;;;6.30;94.30;;;6.18;78.73;98777.56;4968644;28;20074;-82
2020/12/07 10:31:33;;;;;;;33.70;19.27;;;6.30;94.10;;;6.19;79.18;98781.94;4967653;28;20050;-81
2020/12/07 10:34:00;;;;;;;35.47;20.20;;;6.30;94.10;;;6.21;79.20;98784.44;4976548;28;20051;-82
2020/12/07 10:36:27;;;;;;;34.53;20.15;;;6.20;94.00;;;6.17;78.32;98789.41;4959328;28;20192;-81
2020/12/07 10:38:55;;;;;;;34.95;19.27;;;6.20;93.90;;;6.18;78.76;98785.66;4961900;28;20106;-82
2020/12/07 10:41:27;;;;;;;35.20;20.15;;;6.20;93.80;;;6.16;78.30;98782.31;4960003;28;20035;-82
2020/12/07 10:43:54;;;;;;;37.47;21.00;;;6.20;93.70;;;6.20;78.82;98780.88;4966131;28;20057;-81
2020/12/07 10:46:21;;;;;;;38.13;20.80;;;6.20;93.70;;;6.19;78.62;98776.53;4975056;28;20129;-82
2020/12/07 10:48:47;;;;;;;36.30;20.85;;;6.20;94.10;;;6.18;78.53;98776.72;4977047;28;20058;-82
2020/12/07 10:51:15;;;;;;;36.55;20.70;;;6.20;93.90;;;6.13;78.98;98777.34;4973599;28;20043;-81
2020/12/07 10:53:41;;;;;;;42.28;21.80;;;6.20;94.00;;;6.11;78.88;98782.09;4957061;28;20039;-82
2020/12/07 10:56:10;;;;;;;35.95;21.08;;;6.20;93.90;;;6.19;79.38;98781.94;4958000;28;20094;-82
2020/12/07 10:58:39;;;;;;;41.05;22.48;;;6.20;94.10;;;6.21;79.23;98789.84;4956763;28;20140;-81